Aviation Digital Data Service (ADDS)

Output produced by METARs form (1949 UTC 13 November 2019)
found at http://www.aviationweather.gov/metar/data/
 
Forecast for: LIRP (PISA (CIV/IT-AFB, IT)
Text: TAF LIRP 131700Z 1318/1418 11005KT 9999 SCT040
Forecast period: 1800 UTC 13 November 2019 to 1000 UTC 14 November 2019
Forecast type: FROM: standard forecast or significant change
Winds: from the ESE (110 degrees) at 6 MPH (5 knots; 2.6 m/s)
Visibility: 6 or more miles 10+ km)
Ceiling: at least 12,000 feet AGL
Clouds: scattered clouds at 4000 feet AGL
Weather: no significant weather forecast for this period
Text: PROB30
Forecast period: 2100 UTC 13 November 2019 to 0700 UTC 14 November 2019
Forecast type: TEMPORARY: The following changes expected for less than half the time period
Visibility: 2.49 miles (4.01 km)
Ceiling: unknown
Clouds: missing
Weather: BR  (mist)
Text: TEMPO 1321/1407 4000 BR
Forecast period: 1000 to 1800 UTC 14 November 2019
Forecast type: BECOMING: Conditions expected to become as follows by 1200 UTC 14 November 2019
Winds: from the ESE (110 degrees) at 14 MPH (12 knots; 6.2 m/s)
Visibility: 6 or more miles 10+ km)
Ceiling: 1500 feet AGL
Clouds: broken clouds at 1500 feet AGL
Weather: no significant weather forecast for this period